Time;durP1;ratioP1;P1;durP2;ratioP2;P2;SDS_P1;SDS_P2;PMS_P1;PMS_P2;Temp;Humidity;BMP_temperature;BMP_pressure;BME280_temperature;BME280_humidity;BME280_pressure;Samples;Min_cycle;Max_cycle;Signal;HPM_P1;HPM_P2
2022/05/11 00:00:50;;;;;;;4.27;2.23;;;;;;;;;;4403423;29;20057;-72
2022/05/11 00:03:00;;;;;;;2.20;1.90;;;;;;;;;;4405546;29;20084;-72
2022/05/11 00:05:12;;;;;;;2.87;2.00;;;;;;;;;;4405102;28;20510;-72
2022/05/11 00:07:23;;;;;;;3.58;1.90;;;;;;;;;;4418988;28;20075;-72
2022/05/11 00:09:33;;;;;;;3.20;2.10;;;;;;;;;;4404060;29;20119;-72
2022/05/11 00:11:44;;;;;;;2.37;1.67;;;;;;;;;;4404480;29;20071;-71
2022/05/11 00:13:55;;;;;;;3.87;2.27;;;;;;;;;;4405762;28;20142;-72
2022/05/11 00:16:05;;;;;;;3.28;2.05;;;;;;;;;;4406670;29;20036;-71
2022/05/11 00:18:16;;;;;;;4.93;2.20;;;;;;;;;;4405302;28;20476;-72
2022/05/11 00:20:27;;;;;;;3.40;2.13;;;;;;;;;;4404622;29;20092;-72
2022/05/11 00:22:38;;;;;;;2.42;1.92;;;;;;;;;;4405684;29;20158;-71
2022/05/11 00:24:48;;;;;;;2.37;2.10;;;;;;;;;;4404165;29;20412;-72
2022/05/11 00:27:00;;;;;;;3.53;2.10;;;;;;;;;;4402785;28;20111;-71
2022/05/11 00:29:11;;;;;;;2.47;2.28;;;;;;;;;;4418832;28;20867;-72
2022/05/11 00:31:21;;;;;;;2.53;2.00;;;;;;;;;;4404047;29;20040;-71
2022/05/11 00:33:32;;;;;;;3.07;2.23;;;;;;;;;;4405715;29;20123;-71
2022/05/11 00:35:44;;;;;;;3.57;2.13;;;;;;;;;;4418262;28;20047;-72
2022/05/11 00:37:55;;;;;;;3.35;2.30;;;;;;;;;;4404595;29;20036;-71
2022/05/11 00:40:06;;;;;;;2.90;2.40;;;;;;;;;;4406628;28;20037;-72
2022/05/11 00:42:16;;;;;;;3.20;2.10;;;;;;;;;;4403278;28;20649;-72
2022/05/11 00:44:27;;;;;;;3.53;2.33;;;;;;;;;;4404895;29;20683;-72
2022/05/11 00:46:44;;;;;;;2.73;2.10;;;;;;;;;;4405935;29;30717;-72
2022/05/11 00:51:32;;;;;;;4.25;2.05;;;;;;;;;;4409885;29;20036;-72
2022/05/11 00:53:45;;;;;;;2.20;2.00;;;;;;;;;;4404719;29;20116;-72
2022/05/11 00:55:59;;;;;;;4.07;2.30;;;;;;;;;;4403149;29;20505;-72
2022/05/11 00:58:26;;;;;;;3.25;2.30;;;;;;;;;;4403577;29;20040;-71
2022/05/11 01:00:37;;;;;;;4.78;2.50;;;;;;;;;;4407270;29;20054;-72
2022/05/11 01:02:53;;;;;;;3.40;2.20;;;;;;;;;;4402721;29;20084;-72
2022/05/11 01:05:06;;;;;;;4.68;2.42;;;;;;;;;;4405524;29;20032;-72
2022/05/11 01:07:16;;;;;;;3.25;2.22;;;;;;;;;;4402837;29;20051;-72
2022/05/11 01:09:27;;;;;;;3.50;2.20;;;;;;;;;;4404795;28;20043;-71
2022/05/11 01:11:40;;;;;;;2.60;2.23;;;;;;;;;;4404300;29;20064;-71
2022/05/11 01:13:51;;;;;;;3.33;2.33;;;;;;;;;;4404056;29;20040;-72
2022/05/11 01:16:02;;;;;;;2.97;2.22;;;;;;;;;;4406059;29;20034;-72
2022/05/11 01:18:12;;;;;;;2.93;2.00;;;;;;;;;;4404333;29;20496;-72
2022/05/11 01:20:24;;;;;;;2.53;2.23;;;;;;;;;;4403862;29;24374;-72
2022/05/11 01:22:36;;;;;;;;;;;;;;;;;;4410587;29;20893;-71
2022/05/11 01:24:47;;;;;;;3.08;2.22;;;;;;;;;;4402174;29;19962;-72
2022/05/11 01:26:58;;;;;;;4.13;2.08;;;;;;;;;;4412179;28;20032;-72
2022/05/11 01:29:08;;;;;;;3.43;2.53;;;;;;;;;;4404175;29;20055;-73
2022/05/11 01:31:19;;;;;;;3.23;2.40;;;;;;;;;;4403330;29;20045;-71
2022/05/11 01:33:30;;;;;;;3.83;2.37;;;;;;;;;;4404561;29;42757;-72
2022/05/11 01:35:59;;;;;;;2.63;2.17;;;;;;;;;;4404101;29;20040;-72
2022/05/11 01:38:18;;;;;;;3.33;2.30;;;;;;;;;;4405254;29;20147;-72
2022/05/11 01:40:28;;;;;;;3.35;2.28;;;;;;;;;;4412266;29;20036;-72
2022/05/11 01:42:39;;;;;;;4.47;2.37;;;;;;;;;;4404255;28;20059;-71
2022/05/11 01:44:49;;;;;;;3.47;2.20;;;;;;;;;;4404348;29;20087;-72
2022/05/11 01:46:59;;;;;;;5.90;2.47;;;;;;;;;;4402756;29;20047;-72
2022/05/11 01:49:10;;;;;;;4.57;2.43;;;;;;;;;;4395213;29;34611;-72
2022/05/11 01:51:20;;;;;;;2.20;2.00;;;;;;;;;;4403521;29;23454;-73
2022/05/11 01:53:31;;;;;;;3.20;2.30;;;;;;;;;;4403300;29;20690;-72
2022/05/11 01:55:41;;;;;;;2.93;2.17;;;;;;;;;;4404537;29;25221;-72
2022/05/11 01:57:52;;;;;;;3.63;2.30;;;;;;;;;;4405097;29;20036;-71
2022/05/11 02:00:04;;;;;;;3.50;2.40;;;;;;;;;;4404167;28;20040;-72
2022/05/11 02:02:22;;;;;;;2.70;2.25;;;;;;;;;;4409066;29;20040;-72
2022/05/11 02:09:31;;;;;;;3.30;2.40;;;;;;;;;;4404081;29;20037;-72
2022/05/11 02:11:42;;;;;;;3.83;3.00;;;;;;;;;;4406664;28;20564;-72
2022/05/11 02:13:53;;;;;;;5.90;3.23;;;;;;;;;;4403701;29;20819;-72
2022/05/11 02:16:04;;;;;;;5.25;2.95;;;;;;;;;;4405458;29;20065;-72
2022/05/11 02:18:14;;;;;;;3.97;2.97;;;;;;;;;;4404410;29;20486;-73
2022/05/11 02:20:25;;;;;;;3.80;3.30;;;;;;;;;;4403504;29;24491;-72
2022/05/11 02:22:35;;;;;;;3.77;3.27;;;;;;;;;;4401362;28;20040;-72
2022/05/11 02:24:45;;;;;;;3.63;2.97;;;;;;;;;;4404476;29;20033;-72
2022/05/11 02:27:00;;;;;;;5.10;3.30;;;;;;;;;;4404173;29;20037;-72
2022/05/11 02:29:11;;;;;;;5.60;3.70;;;;;;;;;;4403588;29;20187;-72
2022/05/11 02:31:21;;;;;;;4.20;3.10;;;;;;;;;;4403027;29;20058;-72
2022/05/11 02:33:32;;;;;;;4.60;3.40;;;;;;;;;;4403928;29;20378;-72
2022/05/11 02:35:43;;;;;;;4.47;3.30;;;;;;;;;;4405425;29;20028;-72
2022/05/11 02:37:59;;;;;;;5.85;3.70;;;;;;;;;;4388771;29;21159;-72
2022/05/11 02:40:12;;;;;;;4.93;3.50;;;;;;;;;;4405046;29;20040;-72
2022/05/11 02:42:23;;;;;;;5.22;3.40;;;;;;;;;;4407359;29;20131;-72
2022/05/11 02:44:33;;;;;;;4.80;3.13;;;;;;;;;;4407401;29;20071;-72
2022/05/11 02:46:44;;;;;;;3.93;3.27;;;;;;;;;;4407630;29;20557;-72
2022/05/11 02:48:54;;;;;;;3.93;3.20;;;;;;;;;;4406410;28;20449;-72
2022/05/11 02:51:04;;;;;;;4.17;3.50;;;;;;;;;;4406434;29;20036;-72
2022/05/11 02:53:16;;;;;;;4.93;3.37;;;;;;;;;;4405309;28;24847;-72
2022/05/11 02:55:26;;;;;;;3.67;2.58;;;;;;;;;;4405054;29;20037;-72
2022/05/11 02:57:37;;;;;;;4.37;3.00;;;;;;;;;;4404183;29;42247;-72
2022/05/11 02:59:49;;;;;;;4.50;3.27;;;;;;;;;;4408648;29;20032;-72
2022/05/11 03:01:59;;;;;;;3.97;2.97;;;;;;;;;;4405665;29;20952;-72
2022/05/11 03:04:09;;;;;;;4.47;3.27;;;;;;;;;;4406125;29;20028;-72
2022/05/11 03:06:20;;;;;;;4.50;2.90;;;;;;;;;;4408004;29;20044;-72
2022/05/11 03:08:31;;;;;;;4.83;2.70;;;;;;;;;;4406442;29;20035;-73
2022/05/11 03:10:44;;;;;;;5.18;3.15;;;;;;;;;;4406489;29;20127;-73
2022/05/11 03:12:54;;;;;;;4.55;3.20;;;;;;;;;;4405304;29;20098;-72
2022/05/11 03:15:07;;;;;;;4.20;3.50;;;;;;;;;;4404878;29;32455;-73
2022/05/11 03:17:18;;;;;;;4.13;3.05;;;;;;;;;;4395899;29;20100;-72
2022/05/11 03:19:29;;;;;;;4.20;3.13;;;;;;;;;;4406708;29;20051;-72
2022/05/11 03:21:39;;;;;;;4.18;2.97;;;;;;;;;;4413232;29;20056;-72
2022/05/11 03:23:50;;;;;;;4.33;3.53;;;;;;;;;;4405808;29;20051;-72
2022/05/11 03:26:00;;;;;;;5.63;3.53;;;;;;;;;;4405352;29;20040;-72
2022/05/11 03:28:11;;;;;;;5.17;3.57;;;;;;;;;;4406267;29;20040;-73
2022/05/11 03:30:21;;;;;;;4.30;3.27;;;;;;;;;;4406633;29;20040;-72
2022/05/11 03:35:01;;;;;;;4.60;3.35;;;;;;;;;;4405245;29;20036;-72
2022/05/11 03:37:14;;;;;;;4.47;3.53;;;;;;;;;;4407251;29;20045;-71
2022/05/11 03:39:25;;;;;;;4.88;3.50;;;;;;;;;;4405959;29;20777;-72
2022/05/11 03:41:35;;;;;;;4.13;3.20;;;;;;;;;;4404879;29;20056;-71
2022/05/11 03:43:46;;;;;;;4.37;3.33;;;;;;;;;;4405552;29;20120;-72
2022/05/11 03:45:56;;;;;;;4.83;3.50;;;;;;;;;;4405087;29;25072;-71
2022/05/11 03:48:07;;;;;;;3.70;3.03;;;;;;;;;;4406143;28;20474;-72
2022/05/11 03:50:22;;;;;;;5.33;3.50;;;;;;;;;;4407122;29;20248;-72
2022/05/11 03:52:33;;;;;;;5.55;3.42;;;;;;;;;;4412201;29;20040;-71
2022/05/11 03:54:43;;;;;;;4.07;3.00;;;;;;;;;;4404087;28;20028;-73
2022/05/11 03:56:54;;;;;;;3.93;3.03;;;;;;;;;;4405240;29;20033;-72
2022/05/11 03:59:04;;;;;;;5.33;3.30;;;;;;;;;;4405490;29;20482;-72
2022/05/11 04:01:15;;;;;;;5.50;3.23;;;;;;;;;;4404647;29;20097;-72
2022/05/11 04:03:26;;;;;;;4.70;3.43;;;;;;;;;;4404728;29;20096;-72
2022/05/11 04:05:37;;;;;;;4.07;3.40;;;;;;;;;;4407334;29;20543;-73
2022/05/11 04:07:47;;;;;;;5.70;3.50;;;;;;;;;;4403406;29;20316;-72
2022/05/11 04:09:58;;;;;;;5.00;3.20;;;;;;;;;;4405369;29;20044;-72
2022/05/11 04:12:09;;;;;;;4.80;3.50;;;;;;;;;;4404913;29;20187;-72
2022/05/11 04:14:19;;;;;;;4.68;3.47;;;;;;;;;;4403777;29;20030;-72
2022/05/11 04:16:30;;;;;;;5.77;3.40;;;;;;;;;;4404291;29;37840;-72
2022/05/11 04:18:40;;;;;;;3.83;3.00;;;;;;;;;;4403903;29;20051;-72
2022/05/11 04:20:51;;;;;;;4.00;3.47;;;;;;;;;;4403778;29;20043;-72
2022/05/11 04:23:01;;;;;;;5.43;3.43;;;;;;;;;;4405667;29;20028;-71
2022/05/11 04:25:15;;;;;;;3.97;3.20;;;;;;;;;;4404607;29;20710;-72
2022/05/11 04:27:25;;;;;;;4.30;3.60;;;;;;;;;;4404985;29;20040;-71
2022/05/11 04:29:37;;;;;;;5.33;3.43;;;;;;;;;;4404178;29;20371;-71
2022/05/11 04:31:55;;;;;;;5.45;3.47;;;;;;;;;;4411603;29;20504;-72
2022/05/11 04:34:06;;;;;;;5.22;3.85;;;;;;;;;;4404079;29;20081;-71
2022/05/11 04:36:16;;;;;;;5.43;3.87;;;;;;;;;;4402315;29;20517;-72
2022/05/11 04:38:27;;;;;;;4.93;3.93;;;;;;;;;;4403155;29;20065;-72
2022/05/11 04:40:37;;;;;;;4.60;3.63;;;;;;;;;;4403766;29;20100;-72
2022/05/11 04:42:48;;;;;;;5.33;3.70;;;;;;;;;;4402380;29;21330;-72
2022/05/11 04:44:58;;;;;;;5.53;3.67;;;;;;;;;;4402990;29;20062;-72
2022/05/11 04:47:11;;;;;;;5.83;3.60;;;;;;;;;;4402593;29;20037;-73
2022/05/11 04:49:23;;;;;;;6.18;3.80;;;;;;;;;;4402440;29;20044;-72
2022/05/11 04:51:34;;;;;;;5.00;3.42;;;;;;;;;;4404146;29;21029;-72
2022/05/11 04:53:44;;;;;;;5.03;3.23;;;;;;;;;;4403580;29;20112;-73
2022/05/11 04:55:55;;;;;;;5.00;3.77;;;;;;;;;;4403327;29;20047;-72
2022/05/11 04:58:05;;;;;;;4.33;3.47;;;;;;;;;;4392929;29;20064;-72
2022/05/11 05:00:16;;;;;;;5.07;3.47;;;;;;;;;;4405194;29;20092;-72
2022/05/11 05:02:29;;;;;;;6.23;3.87;;;;;;;;;;4402719;29;20120;-72
2022/05/11 05:04:40;;;;;;;4.90;3.92;;;;;;;;;;4402883;28;20032;-73
2022/05/11 05:06:50;;;;;;;5.43;3.73;;;;;;;;;;4404855;29;20788;-72
2022/05/11 05:09:03;;;;;;;4.97;3.73;;;;;;;;;;4403285;29;20144;-72
2022/05/11 05:11:13;;;;;;;5.65;3.90;;;;;;;;;;4403550;29;20038;-72
2022/05/11 05:13:24;;;;;;;5.10;3.50;;;;;;;;;;4402429;29;20786;-72
2022/05/11 05:15:36;;;;;;;4.70;3.80;;;;;;;;;;4403889;29;20051;-73
2022/05/11 05:17:50;;;;;;;4.75;3.63;;;;;;;;;;4395843;29;20040;-72
2022/05/11 05:20:01;;;;;;;5.03;3.78;;;;;;;;;;4411329;29;20140;-72
2022/05/11 05:22:12;;;;;;;5.53;4.20;;;;;;;;;;4403596;29;20090;-72
2022/05/11 05:24:23;;;;;;;5.95;4.18;;;;;;;;;;4404632;29;20047;-72
2022/05/11 05:26:34;;;;;;;5.57;3.60;;;;;;;;;;4387018;29;20040;-73
2022/05/11 05:31:16;;;;;;;6.78;4.82;;;;;;;;;;4404590;29;20053;-72
2022/05/11 05:33:27;;;;;;;6.15;4.63;;;;;;;;;;4396346;29;20033;-72
2022/05/11 05:35:37;;;;;;;5.80;4.23;;;;;;;;;;4403710;29;20033;-72
2022/05/11 05:37:48;;;;;;;5.73;3.90;;;;;;;;;;4403716;28;20039;-72
2022/05/11 05:39:58;;;;;;;5.77;4.00;;;;;;;;;;4402531;29;32123;-72
2022/05/11 05:42:16;;;;;;;4.67;3.80;;;;;;;;;;4401983;29;20846;-72
2022/05/11 05:44:31;;;;;;;5.53;4.13;;;;;;;;;;4405342;29;20063;-72
2022/05/11 05:46:41;;;;;;;6.85;4.25;;;;;;;;;;4401797;29;20041;-72
2022/05/11 05:48:52;;;;;;;5.77;4.60;;;;;;;;;;4404154;29;20091;-73
2022/05/11 05:51:10;;;;;;;5.53;4.00;;;;;;;;;;4403015;29;20405;-73
2022/05/11 05:53:21;;;;;;;5.50;4.30;;;;;;;;;;4411338;28;20056;-73
2022/05/11 05:55:32;;;;;;;7.05;4.30;;;;;;;;;;4396808;29;20681;-73
2022/05/11 05:57:42;;;;;;;6.07;4.57;;;;;;;;;;4406719;28;20521;-72
2022/05/11 05:59:53;;;;;;;6.00;4.23;;;;;;;;;;4404733;29;20028;-72
2022/05/11 06:02:06;;;;;;;6.93;4.82;;;;;;;;;;4401746;29;20056;-71
2022/05/11 06:04:16;;;;;;;6.20;4.40;;;;;;;;;;4404712;29;20029;-72
2022/05/11 06:06:27;;;;;;;5.63;4.13;;;;;;;;;;4402068;29;20041;-72
2022/05/11 06:08:38;;;;;;;5.47;4.23;;;;;;;;;;4408295;28;20047;-72
2022/05/11 06:10:49;;;;;;;6.93;4.57;;;;;;;;;;4375237;29;20089;-72
2022/05/11 06:12:59;;;;;;;6.53;4.35;;;;;;;;;;4405388;28;20049;-72
2022/05/11 06:15:13;;;;;;;7.57;4.57;;;;;;;;;;4405490;29;37190;-72
2022/05/11 06:17:24;;;;;;;6.53;4.70;;;;;;;;;;4404788;29;20726;-72
2022/05/11 06:19:34;;;;;;;5.93;4.18;;;;;;;;;;4407364;28;20572;-73
2022/05/11 06:21:45;;;;;;;7.40;4.37;;;;;;;;;;4405885;29;20157;-73
2022/05/11 06:23:55;;;;;;;8.17;5.03;;;;;;;;;;4405156;29;20147;-72
2022/05/11 06:26:05;;;;;;;6.20;4.70;;;;;;;;;;4411263;29;42996;-72
2022/05/11 06:28:19;;;;;;;5.07;3.93;;;;;;;;;;4408188;29;20040;-72
2022/05/11 06:30:30;;;;;;;6.15;4.05;;;;;;;;;;4406544;29;20044;-72
2022/05/11 06:32:40;;;;;;;6.77;4.27;;;;;;;;;;4406320;29;20037;-72
2022/05/11 06:34:52;;;;;;;5.83;4.17;;;;;;;;;;4405773;29;20036;-72
2022/05/11 06:37:03;;;;;;;7.32;4.22;;;;;;;;;;4405428;29;20600;-72
2022/05/11 06:39:13;;;;;;;6.40;4.30;;;;;;;;;;4407166;28;20944;-72
2022/05/11 06:41:27;;;;;;;6.27;4.60;;;;;;;;;;4403922;29;20839;-72
2022/05/11 06:43:37;;;;;;;6.30;4.13;;;;;;;;;;4403740;29;20548;-71
2022/05/11 06:45:48;;;;;;;5.43;4.13;;;;;;;;;;4404729;28;20033;-71
2022/05/11 06:47:58;;;;;;;5.93;4.10;;;;;;;;;;4404705;28;20127;-72
2022/05/11 06:50:11;;;;;;;4.83;3.53;;;;;;;;;;4403942;29;20047;-72
2022/05/11 06:52:22;;;;;;;5.57;3.80;;;;;;;;;;4404366;29;20044;-72
2022/05/11 06:59:33;;;;;;;7.38;3.70;;;;;;;;;;4403471;29;20218;-71
2022/05/11 07:01:43;;;;;;;4.70;3.30;;;;;;;;;;4404226;29;20683;-71
2022/05/11 07:03:53;;;;;;;5.17;3.33;;;;;;;;;;4407046;29;20930;-71
2022/05/11 07:06:05;;;;;;;6.27;2.90;;;;;;;;;;4404734;29;20036;-72
2022/05/11 07:08:16;;;;;;;5.13;3.22;;;;;;;;;;4412260;29;20044;-73
2022/05/11 07:10:26;;;;;;;4.43;3.10;;;;;;;;;;4404426;29;20041;-72
2022/05/11 07:12:38;;;;;;;4.13;3.00;;;;;;;;;;4405897;29;20494;-73
2022/05/11 07:14:53;;;;;;;5.05;2.70;;;;;;;;;;4399401;29;20032;-72
2022/05/11 07:17:04;;;;;;;3.05;2.40;;;;;;;;;;4406343;28;20076;-72
2022/05/11 07:19:14;;;;;;;3.42;2.25;;;;;;;;;;4412774;29;20076;-72
2022/05/11 07:21:25;;;;;;;3.60;2.30;;;;;;;;;;4409908;29;20493;-71
2022/05/11 07:23:35;;;;;;;4.67;2.30;;;;;;;;;;4405837;29;20923;-72
2022/05/11 07:25:46;;;;;;;2.70;2.10;;;;;;;;;;4405655;29;20041;-72
2022/05/11 07:27:58;;;;;;;3.10;2.20;;;;;;;;;;4403494;29;20052;-72
2022/05/11 07:30:13;;;;;;;4.13;2.30;;;;;;;;;;4407841;29;20600;-72
2022/05/11 07:32:25;;;;;;;2.53;2.30;;;;;;;;;;4396807;29;20194;-72
2022/05/11 07:34:36;;;;;;;3.05;2.00;;;;;;;;;;4407249;29;20592;-72
2022/05/11 07:36:48;;;;;;;3.47;2.25;;;;;;;;;;4404638;29;20610;-72
2022/05/11 07:38:59;;;;;;;4.20;2.33;;;;;;;;;;4405396;28;20138;-72
2022/05/11 07:41:10;;;;;;;2.37;2.03;;;;;;;;;;4405241;29;20084;-72
2022/05/11 07:43:21;;;;;;;2.45;2.25;;;;;;;;;;4403312;29;20044;-72
2022/05/11 07:45:32;;;;;;;2.40;2.20;;;;;;;;;;4404990;29;20036;-72
2022/05/11 07:47:43;;;;;;;3.03;2.20;;;;;;;;;;4413092;29;20039;-72
2022/05/11 07:49:54;;;;;;;3.55;2.00;;;;;;;;;;4412775;29;20032;-72
2022/05/11 07:52:06;;;;;;;3.33;2.07;;;;;;;;;;4404523;28;20062;-71
2022/05/11 07:54:17;;;;;;;3.03;2.30;;;;;;;;;;4404041;29;20040;-71
2022/05/11 08:01:25;;;;;;;3.03;2.30;;;;;;;;;;4404796;29;20047;-72
2022/05/11 08:03:35;;;;;;;2.93;2.20;;;;;;;;;;4402486;29;20039;-72
2022/05/11 08:05:46;;;;;;;2.13;1.87;;;;;;;;;;4417502;28;20484;-72
2022/05/11 08:07:58;;;;;;;3.33;2.17;;;;;;;;;;4404440;29;20070;-72
2022/05/11 08:10:12;;;;;;;3.20;2.20;;;;;;;;;;4404245;28;20036;-72
2022/05/11 08:12:23;;;;;;;3.47;2.28;;;;;;;;;;4404953;29;20037;-72
2022/05/11 08:14:33;;;;;;;3.93;2.10;;;;;;;;;;4404546;29;20066;-71
2022/05/11 08:16:44;;;;;;;2.87;2.17;;;;;;;;;;4402711;29;20055;-72
2022/05/11 08:18:55;;;;;;;3.15;2.13;;;;;;;;;;4404589;29;20123;-71
2022/05/11 08:21:05;;;;;;;2.80;2.20;;;;;;;;;;4405081;29;20096;-72
2022/05/11 08:23:16;;;;;;;3.00;1.97;;;;;;;;;;4407493;28;20036;-72
2022/05/11 08:25:28;;;;;;;1.90;1.70;;;;;;;;;;4405539;29;20028;-73
2022/05/11 08:27:40;;;;;;;3.58;2.00;;;;;;;;;;4405012;29;20037;-74
2022/05/11 08:34:49;;;;;;;3.42;2.00;;;;;;;;;;4403694;29;20028;-73
2022/05/11 08:36:59;;;;;;;2.80;2.20;;;;;;;;;;4418658;28;20533;-74
2022/05/11 08:39:09;;;;;;;4.23;2.10;;;;;;;;;;4405104;28;20041;-74
2022/05/11 08:41:42;;;;;;;3.60;2.13;;;;;;;;;;4404554;29;44916;-74
2022/05/11 08:43:55;;;;;;;3.38;2.40;;;;;;;;;;4403930;29;20639;-73
2022/05/11 08:46:38;;;;;;;3.30;2.20;;;;;;;;;;4403815;29;20029;-73
2022/05/11 08:48:48;;;;;;;2.88;2.10;;;;;;;;;;4407268;28;20601;-74
2022/05/11 08:51:01;;;;;;;2.40;2.00;;;;;;;;;;4404093;29;20039;-74
2022/05/11 08:53:27;;;;;;;2.88;2.00;;;;;;;;;;4404368;29;20070;-73
2022/05/11 08:55:49;;;;;;;3.10;2.35;;;;;;;;;;4397112;29;20048;-74
2022/05/11 08:58:08;;;;;;;2.90;2.00;;;;;;;;;;4403625;29;21293;-74
2022/05/11 09:00:19;;;;;;;3.67;2.00;;;;;;;;;;4405516;29;20043;-74
2022/05/11 09:02:53;;;;;;;4.03;2.07;;;;;;;;;;4402904;29;20079;-73
2022/05/11 09:05:04;;;;;;;3.45;2.03;;;;;;;;;;4405511;29;20072;-73
2022/05/11 09:07:15;;;;;;;2.83;1.95;;;;;;;;;;4404057;29;20584;-74
2022/05/11 09:09:26;;;;;;;3.38;2.17;;;;;;;;;;4411653;29;20111;-74
2022/05/11 09:11:50;;;;;;;5.10;2.23;;;;;;;;;;4403988;29;20442;-73
2022/05/11 09:14:02;;;;;;;2.40;1.98;;;;;;;;;;4412509;29;20035;-73
2022/05/11 09:16:24;;;;;;;2.60;2.03;;;;;;;;;;4400826;29;20044;-74
2022/05/11 09:18:39;;;;;;;4.55;2.42;;;;;;;;;;4403232;29;20040;-74
2022/05/11 09:20:52;;;;;;;3.42;2.10;;;;;;;;;;4403206;29;20057;-73
2022/05/11 09:23:03;;;;;;;4.43;2.50;;;;;;;;;;4401886;29;20164;-64
2022/05/11 09:25:20;;;;;;;3.15;2.08;;;;;;;;;;4403642;28;20087;-65
2022/05/11 09:27:36;;;;;;;3.05;2.08;;;;;;;;;;4403681;29;20036;-65
2022/05/11 09:29:55;;;;;;;3.25;2.13;;;;;;;;;;4407943;29;20127;-71
2022/05/11 09:32:31;;;;;;;3.92;2.22;;;;;;;;;;4403554;29;21154;-70
2022/05/11 09:34:42;;;;;;;3.72;2.30;;;;;;;;;;4400530;29;20116;-70
2022/05/11 09:37:07;;;;;;;2.67;2.07;;;;;;;;;;4403294;29;20044;-70
2022/05/11 09:39:18;;;;;;;2.72;1.95;;;;;;;;;;4409087;29;20040;-71
2022/05/11 09:41:29;;;;;;;5.07;2.03;;;;;;;;;;4402904;28;24836;-70
2022/05/11 09:43:49;;;;;;;2.70;1.92;;;;;;;;;;4402726;29;20777;-67
2022/05/11 09:46:01;;;;;;;2.92;1.95;;;;;;;;;;4416291;28;21165;-72
2022/05/11 09:48:22;;;;;;;2.55;2.00;;;;;;;;;;4402068;29;20040;-72
2022/05/11 09:50:33;;;;;;;2.92;1.80;;;;;;;;;;4402684;29;20032;-72
2022/05/11 09:52:44;;;;;;;4.67;2.07;;;;;;;;;;4405288;29;20037;-71
2022/05/11 09:54:54;;;;;;;3.30;2.00;;;;;;;;;;4402358;29;20060;-72
2022/05/11 09:57:20;;;;;;;2.83;1.67;;;;;;;;;;4403359;28;20096;-72
2022/05/11 09:59:45;;;;;;;2.85;1.70;;;;;;;;;;4401364;29;20044;-72
2022/05/11 10:02:23;;;;;;;2.63;1.60;;;;;;;;;;4402679;29;20115;-72
2022/05/11 10:04:39;;;;;;;3.83;1.88;;;;;;;;;;4411579;29;20580;-72
2022/05/11 10:06:51;;;;;;;1.83;1.48;;;;;;;;;;4405617;29;20051;-72
2022/05/11 10:09:02;;;;;;;1.70;1.38;;;;;;;;;;4401710;29;20049;-72
2022/05/11 10:11:21;;;;;;;3.33;1.67;;;;;;;;;;4411241;29;20032;-72
2022/05/11 10:13:44;;;;;;;3.83;2.08;;;;;;;;;;4405139;29;20044;-72
2022/05/11 10:24:14;;;;;;;3.50;1.60;;;;;;;;;;4415311;28;20617;-72
2022/05/11 10:26:39;;;;;;;1.95;1.75;;;;;;;;;;4403605;28;20040;-72
2022/05/11 10:29:21;;;;;;;2.08;1.70;;;;;;;;;;4411174;29;20651;-72
2022/05/11 10:31:31;;;;;;;2.85;1.50;;;;;;;;;;4402691;28;21010;-72
2022/05/11 10:33:58;;;;;;;4.87;1.60;;;;;;;;;;4402089;28;20127;-72
2022/05/11 10:36:42;;;;;;;2.03;1.60;;;;;;;;;;4402457;29;20044;-72
2022/05/11 10:39:15;;;;;;;2.22;1.50;;;;;;;;;;4404108;29;20045;-72
2022/05/11 10:42:10;;;;;;;4.40;1.60;;;;;;;;;;4388548;29;20434;-71
2022/05/11 10:44:37;;;;;;;3.78;1.83;;;;;;;;;;4393964;29;20073;-72
2022/05/11 10:46:54;;;;;;;3.22;1.60;;;;;;;;;;4410293;29;20040;-71
2022/05/11 10:49:15;;;;;;;4.75;1.90;;;;;;;;;;4395096;29;20054;-71
2022/05/11 10:51:51;;;;;;;2.63;1.67;;;;;;;;;;4402264;29;20060;-71
2022/05/11 10:54:08;;;;;;;3.55;1.42;;;;;;;;;;4384875;29;20608;-71
2022/05/11 10:56:31;;;;;;;2.95;2.00;;;;;;;;;;4402775;29;20025;-71
2022/05/11 10:59:03;;;;;;;2.17;1.48;;;;;;;;;;4406330;29;20923;-72
2022/05/11 11:01:15;;;;;;;2.63;1.70;;;;;;;;;;4405641;29;20119;-72
2022/05/11 11:03:35;;;;;;;2.25;1.67;;;;;;;;;;4404689;29;20041;-72
2022/05/11 11:08:35;;;;;;;4.45;1.80;;;;;;;;;;4404068;29;20112;-72
2022/05/11 11:10:53;;;;;;;2.50;1.65;;;;;;;;;;4404259;29;20040;-72
2022/05/11 11:13:29;;;;;;;2.90;1.70;;;;;;;;;;4405755;29;20041;-73
2022/05/11 11:15:44;;;;;;;2.85;1.58;;;;;;;;;;4406392;29;20036;-73
2022/05/11 11:17:56;;;;;;;2.38;1.52;;;;;;;;;;4403780;29;20088;-73
2022/05/11 11:20:09;;;;;;;2.35;1.63;;;;;;;;;;4407603;29;20040;-72
2022/05/11 11:22:19;;;;;;;2.40;1.52;;;;;;;;;;4388696;29;20066;-73
2022/05/11 11:24:30;;;;;;;2.13;1.47;;;;;;;;;;4404681;29;20036;-72
2022/05/11 11:26:41;;;;;;;2.17;1.63;;;;;;;;;;4406078;29;20033;-72
2022/05/11 11:29:00;;;;;;;3.10;1.40;;;;;;;;;;4405818;29;20402;-72
2022/05/11 11:31:12;;;;;;;2.22;1.60;;;;;;;;;;4405847;28;20045;-72
2022/05/11 11:33:24;;;;;;;1.95;1.58;;;;;;;;;;4404944;28;20044;-72
2022/05/11 11:35:41;;;;;;;3.20;1.50;;;;;;;;;;4418621;28;20024;-72
2022/05/11 11:38:01;;;;;;;1.95;1.50;;;;;;;;;;4405057;28;20049;-72
2022/05/11 11:40:21;;;;;;;2.30;1.60;;;;;;;;;;4405302;29;20037;-73
2022/05/11 11:42:38;;;;;;;2.53;1.55;;;;;;;;;;4404885;29;20107;-72
2022/05/11 11:44:49;;;;;;;2.47;1.52;;;;;;;;;;4403351;29;20036;-72
2022/05/11 11:46:59;;;;;;;3.07;1.70;;;;;;;;;;4404954;29;20911;-72
2022/05/11 11:49:16;;;;;;;3.33;1.63;;;;;;;;;;4405391;29;27107;-72
2022/05/11 11:51:34;;;;;;;2.33;1.60;;;;;;;;;;4418186;28;20144;-73
2022/05/11 11:53:50;;;;;;;2.65;1.50;;;;;;;;;;4403822;29;20198;-72
2022/05/11 11:56:23;;;;;;;2.40;1.40;;;;;;;;;;4407380;28;20036;-72
2022/05/11 11:58:35;;;;;;;3.08;1.52;;;;;;;;;;4406336;28;20036;-72
2022/05/11 12:00:45;;;;;;;;;;;;;;;;;;4405685;28;20047;-72
2022/05/11 12:02:55;;;;;;;2.83;1.83;;;;;;;;;;4404160;28;19974;-72
2022/05/11 12:05:28;;;;;;;3.30;1.90;;;;;;;;;;4404851;29;20039;-72
2022/05/11 12:15:33;;;;;;;3.58;1.50;;;;;;;;;;4404756;29;20041;-72
2022/05/11 12:17:43;;;;;;;2.78;1.38;;;;;;;;;;4404144;28;20851;-73
2022/05/11 12:20:01;;;;;;;3.23;1.60;;;;;;;;;;4404348;29;20104;-73
2022/05/11 12:22:22;;;;;;;2.80;1.65;;;;;;;;;;4400043;29;20080;-73
2022/05/11 12:24:37;;;;;;;2.15;1.48;;;;;;;;;;4405186;29;20036;-72
2022/05/11 12:27:02;;;;;;;2.20;1.30;;;;;;;;;;4412552;29;20156;-72
2022/05/11 12:31:54;;;;;;;2.95;1.40;;;;;;;;;;4387573;29;20054;-72
2022/05/11 12:34:06;;;;;;;2.05;1.42;;;;;;;;;;4403871;29;20845;-72
2022/05/11 12:36:32;;;;;;;1.85;1.45;;;;;;;;;;4403529;28;20039;-72
2022/05/11 12:38:42;;;;;;;2.90;1.67;;;;;;;;;;4403561;29;20036;-72
2022/05/11 12:40:54;;;;;;;2.10;1.50;;;;;;;;;;4403156;29;20076;-72
2022/05/11 12:43:18;;;;;;;2.72;1.65;;;;;;;;;;4396292;29;20752;-72
2022/05/11 12:45:44;;;;;;;1.73;1.55;;;;;;;;;;4411861;29;20073;-72
2022/05/11 12:47:56;;;;;;;2.72;1.48;;;;;;;;;;4411705;29;20032;-72
2022/05/11 12:50:08;;;;;;;2.97;1.70;;;;;;;;;;4412091;29;20885;-72
2022/05/11 12:52:24;;;;;;;1.92;1.45;;;;;;;;;;4404453;29;20055;-72
2022/05/11 12:54:35;;;;;;;1.95;1.52;;;;;;;;;;4403319;28;20509;-72
2022/05/11 12:57:08;;;;;;;1.87;1.43;;;;;;;;;;4411329;28;20343;-72
2022/05/11 12:59:25;;;;;;;2.08;1.48;;;;;;;;;;4404658;29;20609;-73
2022/05/11 13:01:36;;;;;;;2.63;1.85;;;;;;;;;;4403235;29;20041;-73
2022/05/11 13:03:46;;;;;;;2.43;1.53;;;;;;;;;;4405259;29;20510;-73
2022/05/11 13:06:03;;;;;;;2.53;1.70;;;;;;;;;;4403757;28;20138;-73
2022/05/11 13:08:16;;;;;;;3.50;1.63;;;;;;;;;;4405686;29;20136;-72
2022/05/11 13:10:35;;;;;;;2.53;1.58;;;;;;;;;;4401571;29;20039;-73
2022/05/11 13:12:49;;;;;;;2.67;1.73;;;;;;;;;;4402715;29;20729;-72
2022/05/11 13:15:01;;;;;;;1.88;1.52;;;;;;;;;;4390556;29;20052;-72
2022/05/11 13:17:31;;;;;;;;;;;;;;;;;;4405059;29;20151;-72
2022/05/11 13:19:42;;;;;;;2.70;1.85;;;;;;;;;;4403022;29;19923;-72
2022/05/11 13:21:57;;;;;;;3.17;1.60;;;;;;;;;;4402735;29;20048;-72
2022/05/11 13:24:08;;;;;;;3.15;1.90;;;;;;;;;;4411784;29;20766;-72
2022/05/11 13:26:37;;;;;;;3.67;1.90;;;;;;;;;;4402700;28;20032;-72
2022/05/11 13:28:56;;;;;;;2.78;1.50;;;;;;;;;;4401578;29;20047;-71
2022/05/11 13:31:27;;;;;;;2.85;1.65;;;;;;;;;;4403085;29;20040;-71
2022/05/11 13:33:40;;;;;;;3.15;1.80;;;;;;;;;;4402902;29;20032;-71
2022/05/11 13:36:14;;;;;;;2.85;1.48;;;;;;;;;;4403527;29;20207;-72
2022/05/11 13:38:25;;;;;;;2.58;1.58;;;;;;;;;;4408912;29;20488;-72
2022/05/11 13:40:53;;;;;;;3.17;1.93;;;;;;;;;;4401149;28;33239;-72
2022/05/11 13:43:19;;;;;;;2.83;1.70;;;;;;;;;;4407879;28;20182;-72
2022/05/11 13:45:30;;;;;;;2.80;1.73;;;;;;;;;;4403041;29;20043;-73
2022/05/11 13:50:29;;;;;;;3.95;1.90;;;;;;;;;;4403083;29;20048;-73
2022/05/11 13:52:53;;;;;;;3.83;1.87;;;;;;;;;;4402003;29;20036;-72
2022/05/11 13:55:05;;;;;;;2.28;1.70;;;;;;;;;;4404307;29;20024;-72
2022/05/11 13:57:28;;;;;;;1.98;1.50;;;;;;;;;;4416007;28;20040;-71
2022/05/11 13:59:47;;;;;;;3.80;1.90;;;;;;;;;;4403711;29;20040;-72
2022/05/11 14:01:59;;;;;;;2.17;1.67;;;;;;;;;;4388291;29;20604;-72
2022/05/11 14:04:10;;;;;;;2.25;1.55;;;;;;;;;;4405623;29;20047;-72
2022/05/11 14:06:34;;;;;;;2.60;1.50;;;;;;;;;;4403627;29;20516;-72
2022/05/11 14:08:44;;;;;;;2.90;1.70;;;;;;;;;;4402218;29;20045;-72
2022/05/11 14:10:55;;;;;;;2.57;1.53;;;;;;;;;;4401547;29;20493;-72
2022/05/11 14:13:06;;;;;;;3.47;1.80;;;;;;;;;;4402633;29;20040;-72
2022/05/11 14:15:16;;;;;;;4.00;1.60;;;;;;;;;;4402422;29;20037;-72